createdAt,value
2019-02-20T00:00:23.124Z,90.30
2019-02-20T00:02:46.264Z,90.40
2019-02-20T00:05:07.674Z,91.10
2019-02-20T00:07:28.930Z,91.40
2019-02-20T00:09:50.167Z,91.10
2019-02-20T00:12:11.363Z,91.00
2019-02-20T00:14:32.629Z,90.70
2019-02-20T00:16:53.834Z,90.90
2019-02-20T00:19:15.146Z,90.70
2019-02-20T00:21:36.344Z,90.70
2019-02-20T00:23:57.585Z,90.80
2019-02-20T00:26:18.787Z,90.80
2019-02-20T00:28:40.004Z,90.90
2019-02-20T00:31:01.228Z,90.90
2019-02-20T00:33:22.439Z,90.90
2019-02-20T00:35:43.630Z,91.00
2019-02-20T00:38:04.851Z,90.80
2019-02-20T00:40:27.247Z,91.00
2019-02-20T00:42:48.454Z,91.00
2019-02-20T00:45:28.438Z,91.00
2019-02-20T00:47:57.305Z,91.10
2019-02-20T00:50:20.602Z,91.10
2019-02-20T00:52:49.612Z,91.10
2019-02-20T00:55:07.893Z,91.10
2019-02-20T00:57:29.088Z,91.20
2019-02-20T00:59:50.310Z,91.30
2019-02-20T01:02:11.499Z,91.20
2019-02-20T01:04:32.714Z,91.10
2019-02-20T01:06:53.911Z,90.90
2019-02-20T01:09:15.129Z,91.00
2019-02-20T01:11:36.322Z,91.20
2019-02-20T01:14:11.931Z,91.30
2019-02-20T01:16:33.123Z,91.10
2019-02-20T01:18:54.332Z,91.20
2019-02-20T01:21:15.536Z,91.20
2019-02-20T01:23:36.743Z,91.10
2019-02-20T01:25:58.048Z,91.20
2019-02-20T01:28:19.245Z,91.20
2019-02-20T01:30:40.686Z,91.20
2019-02-20T01:33:01.877Z,91.30
2019-02-20T01:35:23.111Z,91.00
2019-02-20T01:37:44.297Z,90.80
2019-02-20T01:40:06.601Z,90.90
2019-02-20T01:42:27.806Z,90.90
2019-02-20T01:44:49.340Z,90.80
2019-02-20T01:47:10.539Z,90.80
2019-02-20T01:49:31.742Z,90.80
2019-02-20T01:51:53.103Z,91.00
2019-02-20T01:54:14.417Z,90.90
2019-02-20T01:56:35.711Z,91.10
2019-02-20T01:58:57.044Z,91.10
2019-02-20T02:01:18.349Z,91.20
2019-02-20T02:03:39.676Z,91.40
2019-02-20T02:06:00.870Z,91.60
2019-02-20T02:08:22.268Z,91.50
2019-02-20T02:10:43.491Z,91.40
2019-02-20T02:13:04.807Z,91.40
2019-02-20T02:15:26.210Z,91.40
2019-02-20T02:17:47.436Z,91.40
2019-02-20T02:20:08.740Z,91.60
2019-02-20T02:22:29.941Z,91.90
2019-02-20T02:24:51.247Z,91.90
2019-02-20T02:27:12.451Z,91.90
2019-02-20T02:29:33.783Z,91.60
2019-02-20T02:31:55.104Z,91.70
2019-02-20T02:34:16.434Z,91.90
2019-02-20T02:36:37.635Z,92.00
2019-02-20T02:38:59.137Z,91.80
2019-02-20T02:41:20.355Z,92.00
2019-02-20T02:43:41.614Z,92.20
2019-02-20T02:46:02.923Z,92.30
2019-02-20T02:48:25.213Z,92.40
2019-02-20T02:50:46.419Z,92.30
2019-02-20T02:53:07.676Z,92.30
2019-02-20T02:55:28.984Z,92.20
2019-02-20T02:57:50.471Z,92.20
2019-02-20T03:00:12.312Z,92.20
2019-02-20T03:02:33.999Z,92.20
2019-02-20T03:04:55.232Z,92.30
2019-02-20T03:07:16.527Z,92.10
2019-02-20T03:09:37.731Z,92.10
2019-02-20T03:11:58.951Z,92.10
2019-02-20T03:14:20.565Z,92.00
2019-02-20T03:16:41.792Z,92.00
2019-02-20T03:19:03.206Z,91.90
2019-02-20T03:21:24.431Z,91.80
2019-02-20T03:23:45.627Z,91.80
2019-02-20T03:26:06.846Z,91.80
2019-02-20T03:28:28.154Z,91.70
2019-02-20T03:30:49.369Z,91.70
2019-02-20T03:33:10.574Z,91.70
2019-02-20T03:35:31.799Z,91.70
2019-02-20T03:37:52.996Z,91.70
2019-02-20T03:40:14.207Z,91.60
2019-02-20T03:42:35.514Z,91.60
2019-02-20T03:44:56.821Z,91.60
2019-02-20T03:47:20.199Z,91.50
2019-02-20T03:49:41.174Z,91.50
2019-02-20T03:52:02.399Z,91.50
2019-02-20T03:54:23.683Z,91.40
2019-02-20T03:56:44.996Z,91.50
2019-02-20T03:59:06.193Z,91.80
2019-02-20T04:01:27.407Z,91.70
2019-02-20T04:03:48.599Z,91.60
2019-02-20T04:06:09.818Z,91.70
2019-02-20T04:08:32.019Z,91.80
2019-02-20T04:10:53.249Z,91.80
2019-02-20T04:13:14.450Z,91.70
2019-02-20T04:15:35.760Z,91.60
2019-02-20T04:17:56.961Z,91.60
2019-02-20T04:20:18.324Z,91.60
2019-02-20T04:22:39.511Z,91.60
2019-02-20T04:25:00.723Z,91.80
2019-02-20T04:27:21.952Z,91.80
2019-02-20T04:29:43.178Z,91.80
2019-02-20T04:32:04.490Z,91.90
2019-02-20T04:34:26.790Z,92.00
2019-02-20T04:36:48.069Z,91.70
2019-02-20T04:39:09.315Z,92.30
2019-02-20T04:41:31.041Z,92.30
2019-02-20T04:43:52.257Z,92.00
2019-02-20T04:46:13.462Z,91.80
2019-02-20T04:48:35.476Z,91.70
2019-02-20T04:50:56.680Z,91.80
2019-02-20T04:53:17.898Z,91.80
2019-02-20T04:55:39.086Z,91.90
2019-02-20T04:58:15.755Z,92.10
2019-02-20T05:00:37.207Z,92.10
2019-02-20T05:02:58.424Z,92.00
2019-02-20T05:05:19.647Z,92.20
2019-02-20T05:07:42.049Z,92.10
2019-02-20T05:10:06.288Z,92.20
2019-02-20T05:12:27.499Z,92.10
2019-02-20T05:14:50.016Z,92.00
2019-02-20T05:17:11.333Z,92.00
2019-02-20T05:19:32.528Z,92.00
2019-02-20T05:21:53.957Z,91.90
2019-02-20T05:24:24.041Z,91.90
2019-02-20T05:26:38.267Z,91.80
2019-02-20T05:28:59.558Z,91.80
2019-02-20T05:31:20.763Z,91.60
2019-02-20T05:33:42.006Z,91.80
2019-02-20T05:36:03.412Z,91.90
2019-02-20T05:38:24.690Z,91.80
2019-02-20T05:40:45.896Z,91.80
2019-02-20T05:43:07.104Z,92.00
2019-02-20T05:45:28.408Z,92.10
2019-02-20T05:47:49.728Z,91.90
2019-02-20T05:50:11.032Z,91.90
2019-02-20T05:52:32.364Z,91.90
2019-02-20T05:54:53.573Z,91.90
2019-02-20T05:57:14.896Z,91.80
2019-02-20T05:59:36.100Z,91.80
2019-02-20T06:01:57.339Z,91.80
2019-02-20T06:04:19.028Z,91.70
2019-02-20T06:06:40.346Z,91.70
2019-02-20T06:09:01.778Z,91.70
2019-02-20T06:11:24.964Z,91.90
2019-02-20T06:13:46.182Z,91.90
2019-02-20T06:16:07.466Z,91.80
2019-02-20T06:18:28.681Z,91.80
2019-02-20T06:20:49.880Z,91.90
2019-02-20T06:23:11.191Z,91.90
2019-02-20T06:25:32.818Z,91.90
2019-02-20T06:27:54.499Z,92.10
2019-02-20T06:30:16.095Z,92.30
2019-02-20T06:32:37.657Z,92.30
2019-02-20T06:34:58.874Z,92.20
2019-02-20T06:37:20.099Z,92.00
2019-02-20T06:39:41.325Z,92.00
2019-02-20T06:42:02.580Z,92.10
2019-02-20T06:44:23.924Z,92.00
2019-02-20T06:46:45.206Z,92.00
2019-02-20T06:49:06.435Z,92.00
2019-02-20T06:51:27.638Z,91.90
2019-02-20T06:53:48.863Z,91.80
2019-02-20T06:56:10.073Z,91.70
2019-02-20T06:58:31.278Z,91.50
2019-02-20T07:00:52.773Z,91.50
2019-02-20T07:03:13.995Z,91.40
2019-02-20T07:05:38.314Z,91.40
2019-02-20T07:08:33.232Z,91.30
2019-02-20T07:11:14.770Z,91.30
2019-02-20T07:14:00.819Z,91.30
2019-02-20T07:16:43.803Z,91.30
2019-02-20T07:19:36.088Z,91.20
2019-02-20T07:22:23.828Z,91.10
2019-02-20T07:25:02.896Z,90.90
2019-02-20T07:27:39.723Z,90.90
2019-02-20T07:30:03.119Z,90.70
2019-02-20T07:32:24.816Z,90.50
2019-02-20T07:34:46.176Z,90.40
2019-02-20T07:37:07.390Z,90.50
2019-02-20T07:39:28.696Z,90.30
2019-02-20T07:41:49.910Z,90.50
2019-02-20T07:44:11.121Z,90.40
2019-02-20T07:46:32.323Z,90.10
2019-02-20T07:48:53.506Z,90.10
2019-02-20T07:51:14.947Z,89.90
2019-02-20T07:53:36.416Z,90.00
2019-02-20T07:55:57.638Z,90.00
2019-02-20T07:58:19.088Z,90.10
2019-02-20T08:00:40.312Z,90.00
2019-02-20T08:03:01.578Z,89.80
2019-02-20T08:05:22.914Z,89.30
2019-02-20T08:07:44.252Z,89.60
2019-02-20T08:10:08.794Z,89.20
2019-02-20T08:12:30.025Z,88.80
2019-02-20T08:14:51.377Z,88.50
2019-02-20T08:17:12.669Z,88.70
2019-02-20T08:19:33.897Z,88.20
2019-02-20T08:21:55.126Z,87.80
2019-02-20T08:24:16.635Z,87.40
2019-02-20T08:26:37.954Z,87.30
2019-02-20T08:28:59.303Z,86.40
2019-02-20T08:31:21.724Z,86.40
2019-02-20T08:33:43.292Z,85.70
2019-02-20T08:36:04.515Z,85.80
2019-02-20T08:38:25.888Z,85.70
2019-02-20T08:40:47.219Z,85.30
2019-02-20T08:43:08.419Z,85.30
2019-02-20T08:45:29.632Z,85.60
2019-02-20T08:47:50.871Z,85.80
2019-02-20T08:50:12.581Z,85.80
2019-02-20T08:52:33.797Z,86.10
2019-02-20T08:54:54.997Z,86.00
2019-02-20T08:57:16.240Z,86.40
2019-02-20T08:59:37.534Z,86.40
2019-02-20T09:01:58.834Z,87.20
2019-02-20T09:04:20.024Z,86.40
2019-02-20T09:06:41.346Z,86.20
2019-02-20T09:09:04.363Z,86.50
2019-02-20T09:11:27.550Z,85.30
2019-02-20T09:13:48.786Z,85.30
2019-02-20T09:16:09.994Z,85.60
2019-02-20T09:18:31.182Z,85.20
2019-02-20T09:20:52.402Z,84.70
2019-02-20T09:23:13.603Z,84.20
2019-02-20T09:25:41.347Z,83.80
2019-02-20T09:27:58.164Z,84.10
2019-02-20T09:30:28.090Z,84.40
2019-02-20T09:32:42.543Z,84.10
2019-02-20T09:35:05.571Z,83.80
2019-02-20T09:37:26.786Z,83.70
2019-02-20T09:39:48.053Z,84.60
2019-02-20T09:42:09.538Z,84.10
2019-02-20T09:44:34.128Z,84.00
2019-02-20T09:46:55.351Z,84.40
2019-02-20T09:49:16.564Z,84.50
2019-02-20T09:51:38.063Z,84.40
2019-02-20T09:53:59.272Z,84.10
2019-02-20T09:56:20.621Z,84.00
2019-02-20T09:58:41.807Z,83.90
2019-02-20T10:01:03.158Z,83.50
2019-02-20T10:03:24.455Z,83.70
2019-02-20T10:05:45.668Z,83.10
2019-02-20T10:08:07.170Z,82.30
2019-02-20T10:10:28.365Z,82.00
2019-02-20T10:12:49.669Z,81.40
2019-02-20T10:15:15.869Z,80.50
2019-02-20T10:17:37.246Z,80.40
2019-02-20T10:19:58.589Z,80.60
2019-02-20T10:22:19.963Z,80.70
2019-02-20T10:24:41.209Z,80.60
2019-02-20T10:27:03.498Z,79.40
2019-02-20T10:29:24.733Z,79.90
2019-02-20T10:31:45.937Z,79.40
2019-02-20T10:34:07.130Z,79.10
2019-02-20T10:36:28.328Z,78.60
2019-02-20T10:38:49.543Z,78.40
2019-02-20T10:41:10.740Z,78.00
2019-02-20T10:43:32.282Z,77.70
2019-02-20T10:45:53.495Z,77.70
2019-02-20T10:48:14.705Z,77.40
2019-02-20T10:50:35.891Z,77.30
2019-02-20T10:52:57.102Z,76.50
2019-02-20T10:55:18.288Z,76.20
2019-02-20T10:57:39.503Z,75.30
2019-02-20T11:00:00.815Z,75.00
2019-02-20T11:02:22.301Z,74.90
2019-02-20T11:04:43.510Z,74.60
2019-02-20T11:07:04.758Z,73.80
2019-02-20T11:09:26.070Z,73.80
2019-02-20T11:11:47.362Z,72.70
2019-02-20T11:14:08.575Z,72.50
2019-02-20T11:16:29.859Z,72.00
2019-02-20T11:18:51.083Z,71.80
2019-02-20T11:21:12.519Z,71.20
2019-02-20T11:23:33.831Z,71.00
2019-02-20T11:25:55.032Z,70.70
2019-02-20T11:28:16.290Z,70.40
2019-02-20T11:30:37.687Z,70.20
2019-02-20T11:32:58.923Z,69.50
2019-02-20T11:35:21.414Z,69.20
2019-02-20T11:37:42.727Z,69.10
2019-02-20T11:40:05.950Z,69.50
2019-02-20T11:42:27.411Z,69.20
2019-02-20T11:44:48.632Z,68.50
2019-02-20T11:47:09.839Z,68.40
2019-02-20T11:49:31.298Z,68.40
2019-02-20T11:51:52.594Z,68.70
2019-02-20T11:54:13.965Z,68.70
2019-02-20T11:56:35.167Z,68.30
2019-02-20T11:58:56.374Z,68.20
2019-02-20T12:01:17.559Z,68.20
2019-02-20T12:03:38.789Z,67.90
2019-02-20T12:06:00.023Z,67.20
2019-02-20T12:08:21.373Z,67.70
2019-02-20T12:10:42.674Z,67.70
2019-02-20T12:13:04.331Z,67.60
2019-02-20T12:15:25.541Z,66.70
2019-02-20T12:17:46.966Z,66.30
2019-02-20T12:20:08.471Z,66.30
2019-02-20T12:22:29.702Z,66.50
2019-02-20T12:24:50.976Z,65.80
2019-02-20T12:27:12.310Z,66.20
2019-02-20T12:29:33.664Z,65.50
2019-02-20T12:31:54.882Z,65.20
2019-02-20T12:34:16.611Z,65.00
2019-02-20T12:36:38.396Z,65.00
2019-02-20T12:38:59.819Z,65.10
2019-02-20T12:41:21.027Z,64.30
2019-02-20T12:43:42.330Z,61.80
2019-02-20T12:46:03.549Z,61.90
2019-02-20T12:48:24.761Z,62.20
2019-02-20T12:50:45.975Z,64.00
2019-02-20T12:53:07.197Z,64.80
2019-02-20T12:55:28.722Z,64.50
2019-02-20T12:57:49.966Z,64.10
2019-02-20T13:00:13.901Z,64.20
2019-02-20T13:02:36.088Z,64.70
2019-02-20T13:04:57.467Z,64.20
2019-02-20T13:07:18.977Z,64.20
2019-02-20T13:09:40.388Z,63.20
2019-02-20T13:12:03.571Z,63.10
2019-02-20T13:14:24.794Z,62.50
2019-02-20T13:16:45.984Z,60.70
2019-02-20T13:19:07.362Z,61.20
2019-02-20T13:21:28.599Z,60.50
2019-02-20T13:23:50.899Z,60.40
2019-02-20T13:26:12.251Z,60.30
2019-02-20T13:28:33.453Z,59.70
2019-02-20T13:30:54.654Z,59.90
2019-02-20T13:33:15.834Z,59.10
2019-02-20T13:35:37.159Z,58.70
2019-02-20T13:37:58.342Z,58.50
2019-02-20T13:40:19.559Z,57.90
2019-02-20T13:42:40.852Z,58.40
2019-02-20T13:45:03.835Z,58.10
2019-02-20T13:47:25.236Z,57.80
2019-02-20T13:49:46.535Z,58.10
2019-02-20T13:52:07.917Z,58.10
2019-02-20T13:54:29.277Z,58.30
2019-02-20T13:56:50.579Z,57.30
2019-02-20T13:59:11.963Z,57.50
2019-02-20T14:01:33.258Z,57.80
2019-02-20T14:03:54.543Z,57.90
2019-02-20T14:06:15.842Z,57.80
2019-02-20T14:08:37.178Z,58.10
2019-02-20T14:10:59.023Z,58.00
2019-02-20T14:13:21.826Z,58.10
2019-02-20T14:15:43.137Z,58.10
2019-02-20T14:18:04.522Z,58.40
2019-02-20T14:20:26.831Z,58.30
2019-02-20T14:22:48.107Z,58.50
2019-02-20T14:25:09.603Z,58.20
2019-02-20T14:27:30.893Z,57.50
2019-02-20T14:29:52.486Z,57.70
2019-02-20T14:32:13.782Z,57.90
2019-02-20T14:34:35.082Z,58.10
2019-02-20T14:36:56.542Z,57.70
2019-02-20T14:39:18.427Z,58.00
2019-02-20T14:41:39.827Z,58.00
2019-02-20T14:44:01.157Z,57.90
2019-02-20T14:46:22.558Z,58.10
2019-02-20T14:48:43.839Z,58.40
2019-02-20T14:51:05.156Z,58.40
2019-02-20T14:53:26.476Z,58.50
2019-02-20T14:55:47.970Z,58.60
2019-02-20T14:58:09.392Z,58.00
2019-02-20T15:00:30.820Z,58.10
2019-02-20T15:02:52.807Z,58.10
2019-02-20T15:05:14.427Z,58.30
2019-02-20T15:07:35.712Z,57.90
2019-02-20T15:09:57.092Z,58.40
2019-02-20T15:12:20.319Z,58.70
2019-02-20T15:14:41.635Z,59.00
2019-02-20T15:17:02.970Z,59.10
2019-02-20T15:19:24.329Z,59.10
2019-02-20T15:21:46.628Z,59.10
2019-02-20T15:24:07.971Z,59.00
2019-02-20T15:26:29.264Z,59.10
2019-02-20T15:28:51.864Z,59.10
2019-02-20T15:31:13.194Z,59.30
2019-02-20T15:33:34.590Z,60.00
2019-02-20T15:35:55.833Z,59.60
2019-02-20T15:38:17.438Z,59.10
2019-02-20T15:40:38.783Z,59.50
2019-02-20T15:43:01.568Z,59.90
2019-02-20T15:45:23.318Z,60.60
2019-02-20T15:47:44.659Z,60.60
2019-02-20T15:50:09.582Z,60.00
2019-02-20T15:52:30.968Z,60.20
2019-02-20T15:54:52.264Z,60.10
2019-02-20T15:57:13.576Z,60.10
2019-02-20T15:59:34.955Z,60.40
2019-02-20T16:01:56.275Z,60.30
2019-02-20T16:04:17.977Z,60.30
2019-02-20T16:06:40.480Z,60.70
2019-02-20T16:09:02.248Z,60.80
2019-02-20T16:11:25.504Z,61.10
2019-02-20T16:13:46.745Z,61.30
2019-02-20T16:16:08.262Z,61.50
2019-02-20T16:18:29.466Z,61.90
2019-02-20T16:20:50.890Z,62.10
2019-02-20T16:23:12.145Z,62.20
2019-02-20T16:25:33.549Z,62.50
2019-02-20T16:27:55.260Z,62.60
2019-02-20T16:30:16.679Z,62.80
2019-02-20T16:32:38.108Z,62.90
2019-02-20T16:34:59.478Z,63.10
2019-02-20T16:37:21.711Z,63.40
2019-02-20T16:39:43.433Z,63.70
2019-02-20T16:42:04.770Z,63.80
2019-02-20T16:44:26.052Z,64.00
2019-02-20T16:46:48.459Z,64.30
2019-02-20T16:49:09.775Z,64.30
2019-02-20T16:51:31.087Z,64.60
2019-02-20T16:53:53.585Z,65.00
2019-02-20T16:56:14.868Z,65.20
2019-02-20T16:58:36.171Z,65.60
2019-02-20T17:00:57.557Z,65.80
2019-02-20T17:03:18.864Z,66.00
2019-02-20T17:05:40.195Z,66.70
2019-02-20T17:08:01.759Z,66.90
2019-02-20T17:10:23.204Z,67.20
2019-02-20T17:12:44.721Z,67.60
2019-02-20T17:15:10.406Z,67.80
2019-02-20T17:17:31.630Z,68.10
2019-02-20T17:19:52.887Z,68.10
2019-02-20T17:22:14.318Z,68.40
2019-02-20T17:24:35.971Z,68.50
2019-02-20T17:26:57.811Z,68.80
2019-02-20T17:29:19.114Z,69.00
2019-02-20T17:31:40.324Z,69.30
2019-02-20T17:34:01.715Z,69.50
2019-02-20T17:36:23.023Z,71.00
2019-02-20T17:38:44.327Z,71.40
2019-02-20T17:41:07.164Z,71.80
2019-02-20T17:43:28.486Z,72.20
2019-02-20T17:45:49.761Z,72.20
2019-02-20T17:48:11.178Z,72.20
2019-02-20T17:50:33.675Z,72.30
2019-02-20T17:52:54.987Z,72.60
2019-02-20T17:55:16.292Z,72.80
2019-02-20T17:57:37.517Z,72.90
2019-02-20T17:59:58.838Z,73.00
2019-02-20T18:02:20.144Z,73.30
2019-02-20T18:04:41.639Z,73.60
2019-02-20T18:07:02.944Z,73.80
2019-02-20T18:09:24.284Z,73.90
2019-02-20T18:11:45.504Z,74.00
2019-02-20T18:14:07.103Z,74.20
2019-02-20T18:16:28.286Z,74.40
2019-02-20T18:18:49.514Z,74.60
2019-02-20T18:21:11.399Z,74.80
2019-02-20T18:23:32.827Z,75.00
2019-02-20T18:25:54.143Z,75.20
2019-02-20T18:28:23.904Z,75.30
2019-02-20T18:30:39.995Z,75.30
2019-02-20T18:33:01.259Z,75.50
2019-02-20T18:35:22.537Z,75.50
2019-02-20T18:37:43.964Z,75.60
2019-02-20T18:40:08.755Z,75.80
2019-02-20T18:42:30.079Z,76.20
2019-02-20T18:44:51.686Z,76.20
2019-02-20T18:47:13.170Z,76.10
2019-02-20T18:49:34.375Z,76.20
2019-02-20T18:51:55.571Z,76.40
2019-02-20T18:54:16.834Z,76.40
2019-02-20T18:56:38.030Z,76.50
2019-02-20T18:58:59.453Z,76.70
2019-02-20T19:01:21.546Z,76.70
2019-02-20T19:03:42.836Z,76.90
2019-02-20T19:06:04.197Z,77.10
2019-02-20T19:08:39.435Z,77.10
2019-02-20T19:11:05.835Z,77.60
2019-02-20T19:13:58.243Z,77.90
2019-02-20T19:16:35.685Z,78.40
2019-02-20T19:19:02.655Z,78.10
2019-02-20T19:25:09.247Z,78.70
2019-02-20T19:27:34.427Z,79.20
2019-02-20T19:30:03.140Z,79.30
2019-02-20T19:32:48.767Z,79.10
2019-02-20T19:35:36.121Z,79.00
2019-02-20T19:38:19.454Z,79.10
2019-02-20T19:40:56.294Z,79.30
2019-02-20T19:43:56.471Z,79.50
2019-02-20T19:46:30.418Z,79.90
2019-02-20T19:48:58.331Z,80.60
2019-02-20T19:51:23.447Z,81.40
2019-02-20T19:54:00.469Z,81.60
2019-02-20T19:56:32.569Z,81.40
2019-02-20T19:58:58.091Z,81.50
2019-02-20T20:01:40.757Z,81.60
2019-02-20T20:04:15.346Z,81.70
2019-02-20T20:07:02.715Z,82.00
2019-02-20T20:09:38.835Z,82.10
2019-02-20T20:12:25.945Z,82.50
2019-02-20T20:15:22.485Z,82.50
2019-02-20T20:17:58.869Z,82.70
2019-02-20T20:20:30.314Z,82.60
2019-02-20T20:22:56.406Z,82.50
2019-02-20T20:25:37.250Z,82.60
2019-02-20T20:30:55.401Z,83.20
2019-02-20T20:33:44.404Z,83.70
2019-02-20T20:36:44.479Z,84.30
2019-02-20T20:39:18.539Z,83.90
2019-02-20T20:42:00.314Z,83.60
2019-02-20T20:44:37.667Z,84.20
2019-02-20T20:47:08.444Z,84.80
2019-02-20T20:49:36.383Z,85.10
2019-02-20T20:52:04.429Z,84.80
2019-02-20T20:55:22.976Z,84.50
2019-02-20T20:57:55.795Z,84.50
2019-02-20T21:00:35.896Z,84.50
2019-02-20T21:03:00.534Z,85.10
2019-02-20T21:05:43.604Z,85.70
2019-02-20T21:08:08.897Z,85.50
2019-02-20T21:10:55.429Z,85.10
2019-02-20T21:13:20.435Z,85.00
2019-02-20T21:16:08.246Z,85.20
2019-02-20T21:18:51.316Z,85.50
2019-02-20T21:21:16.504Z,85.20
2019-02-20T21:23:53.879Z,85.40
2019-02-20T21:26:20.086Z,85.60
2019-02-20T21:28:45.494Z,85.70
2019-02-20T21:31:22.859Z,85.90
2019-02-20T21:34:11.026Z,85.90
2019-02-20T21:36:48.391Z,85.80
2019-02-20T21:39:35.284Z,86.10
2019-02-20T21:42:32.388Z,86.40
2019-02-20T21:44:57.438Z,86.90
2019-02-20T21:47:22.630Z,87.00
2019-02-20T21:53:02.239Z,86.40
2019-02-20T21:55:46.934Z,86.60
2019-02-20T21:58:17.821Z,86.60
2019-02-20T22:00:42.863Z,86.80
2019-02-20T22:03:22.434Z,86.70
2019-02-20T22:06:23.792Z,87.00
2019-02-20T22:09:06.912Z,87.00
2019-02-20T22:11:36.787Z,87.20
2019-02-20T22:14:07.897Z,87.70
2019-02-20T22:16:55.137Z,87.90
2019-02-20T22:19:46.338Z,87.70
2019-02-20T22:22:37.379Z,87.50
2019-02-20T22:25:22.666Z,87.50
2019-02-20T22:27:59.848Z,87.50
2019-02-20T22:30:37.207Z,87.90
2019-02-20T22:33:05.267Z,88.20
2019-02-20T22:36:02.439Z,88.10
2019-02-20T22:38:45.543Z,88.10
2019-02-20T22:41:13.305Z,88.50
2019-02-20T22:43:59.693Z,88.20
2019-02-20T22:46:40.720Z,88.30
2019-02-20T22:49:09.111Z,88.50
2019-02-20T22:51:36.901Z,88.60
2019-02-20T22:54:04.855Z,88.60
2019-02-20T22:56:46.691Z,88.90
2019-02-20T22:59:29.382Z,89.10
2019-02-20T23:02:09.297Z,88.90
2019-02-20T23:04:46.631Z,88.90
2019-02-20T23:07:17.791Z,88.90
2019-02-20T23:09:52.750Z,88.90
2019-02-20T23:12:30.049Z,88.80
2019-02-20T23:14:58.258Z,88.80
2019-02-20T23:17:19.459Z,89.10
2019-02-20T23:19:40.936Z,89.40
2019-02-20T23:22:02.310Z,89.80
2019-02-20T23:24:24.514Z,89.80
2019-02-20T23:26:45.704Z,89.60
2019-02-20T23:29:06.895Z,89.70
2019-02-20T23:31:28.078Z,89.80
2019-02-20T23:33:49.291Z,89.70
2019-02-20T23:36:10.566Z,89.80
2019-02-20T23:38:31.780Z,90.00
2019-02-20T23:40:52.971Z,90.10
2019-02-20T23:43:14.182Z,90.10
2019-02-20T23:45:35.358Z,90.00
2019-02-20T23:47:56.565Z,89.90
2019-02-20T23:50:17.832Z,90.00
2019-02-20T23:52:39.043Z,90.40
2019-02-20T23:55:00.452Z,90.20
2019-02-20T23:57:21.839Z,90.10
2019-02-20T23:59:43.034Z,90.10
